Time;durP1;ratioP1;P1;durP2;ratioP2;P2;SDS_P1;SDS_P2;PMS_P1;PMS_P2;Temp;Humidity;BMP_temperature;BMP_pressure;BME280_temperature;BME280_humidity;BME280_pressure;Samples;Min_cycle;Max_cycle;Signal;HPM_P1;HPM_P2
2023/01/28 00:01:56;;;;;;;;;;;;;;;3.88;60.40;100488.37;5400953;32;34871;-79
2023/01/28 00:04:58;;;;;;;;;;;;;;;3.36;61.49;100483.66;5400652;32;37509;-80
2023/01/28 00:08:00;;;;;;;;;;;;;;;4.44;58.32;100492.06;5389878;32;35072;-78
2023/01/28 00:11:03;;;;;;;;;;;;;;;3.66;60.39;100488.56;5403740;32;36318;-80
2023/01/28 00:14:09;;;;;;;;;;;;;;;4.21;59.34;100490.63;5391507;32;35744;-77
2023/01/28 00:17:11;;;;;;;;;;;;;;;3.49;60.54;100490.47;5393784;32;35573;-78
2023/01/28 00:20:13;;;;;;;;;;;;;;;3.68;60.94;100492.03;5413528;32;45771;-79
2023/01/28 00:23:15;;;;;;;;;;;;;;;3.71;59.77;100491.13;5386284;32;35409;-77
2023/01/28 00:26:17;;;;;;;;;;;;;;;3.85;60.06;100497.06;5419070;32;34761;-79
2023/01/28 00:29:19;;;;;;;;;;;;;;;3.34;61.53;100498.37;5393945;32;35839;-77
2023/01/28 00:32:21;;;;;;;;;;;;;;;3.60;59.36;100501.63;5393146;32;35140;-78
2023/01/28 00:35:22;;;;;;;;;;;;;;;3.49;60.34;100499.13;5405879;32;34313;-79
2023/01/28 00:38:24;;;;;;;;;;;;;;;4.03;58.42;100501.22;5393381;32;37169;-79
2023/01/28 00:41:27;;;;;;;;;;;;;;;4.48;56.99;100499.81;5414680;32;34976;-79
2023/01/28 00:44:29;;;;;;;;;;;;;;;3.42;59.80;100509.59;5376916;32;35209;-79
2023/01/28 00:47:31;;;;;;;;;;;;;;;4.21;58.42;100508.81;5416259;32;36487;-78
2023/01/28 00:50:33;;;;;;;;;;;;;;;3.52;59.39;100503.44;5402371;32;35401;-79
2023/01/28 00:53:36;;;;;;;;;;;;;;;3.19;59.86;100509.75;5395883;32;34883;-79
2023/01/28 00:56:38;;;;;;;;;;;;;;;3.49;59.46;100519.06;5401988;32;34917;-80
2023/01/28 00:59:40;;;;;;;;;;;;;;;3.94;58.14;100516.94;5369461;32;35090;-80
2023/01/28 01:02:42;;;;;;;;;;;;;;;3.70;58.50;100524.06;5400516;32;34167;-81
2023/01/28 01:05:44;;;;;;;;;;;;;;;4.26;57.33;100514.84;5382054;32;45407;-80
2023/01/28 01:08:48;;;;;;;;;;;;;;;4.10;56.92;100517.63;5413384;32;34397;-80
2023/01/28 01:11:50;;;;;;;;;;;;;;;3.21;59.61;100513.19;5387892;32;35129;-80
2023/01/28 01:14:53;;;;;;;;;;;;;;;3.75;58.58;100519.69;5391149;32;35579;-77
2023/01/28 01:17:56;;;;;;;;;;;;;;;4.04;56.99;100521.13;5402179;32;33561;-80
2023/01/28 01:20:57;;;;;;;;;;;;;;;3.95;57.32;100511.69;5400858;32;35390;-78
2023/01/28 01:23:59;;;;;;;;;;;;;;;3.50;58.52;100516.44;5413023;32;33964;-78
2023/01/28 01:27:01;;;;;;;;;;;;;;;3.83;58.17;100517.03;5397879;32;36488;-80
2023/01/28 01:30:04;;;;;;;;;;;;;;;3.97;57.41;100517.75;5419496;32;35062;-79
2023/01/28 01:33:06;;;;;;;;;;;;;;;3.14;59.48;100525.34;5389582;32;34900;-78
2023/01/28 01:36:09;;;;;;;;;;;;;;;3.74;58.09;100517.97;5404142;32;34997;-79
2023/01/28 01:39:11;;;;;;;;;;;;;;;3.54;57.88;100514.66;5406868;32;35669;-79
2023/01/28 01:42:13;;;;;;;;;;;;;;;3.36;58.90;100522.63;5384528;32;45355;-78
2023/01/28 01:45:18;;;;;;;;;;;;;;;2.81;60.43;100520.38;5405036;32;35662;-80
2023/01/28 01:48:22;;;;;;;;;;;;;;;3.56;58.59;100525.06;5392112;32;34784;-78
2023/01/28 01:51:25;;;;;;;;;;;;;;;4.04;57.97;100514.19;5417287;32;34200;-78
2023/01/28 01:54:27;;;;;;;;;;;;;;;4.03;57.46;100529.81;5395417;32;35851;-80
2023/01/28 01:57:30;;;;;;;;;;;;;;;3.72;58.85;100526.66;5386841;32;36094;-80
2023/01/28 02:00:32;;;;;;;;;;;;;;;4.52;56.54;100526.69;5413960;32;34528;-78
2023/01/28 02:03:47;;;;;;;;;;;;;;;2.98;60.22;100541.91;5395622;32;34012;-79
2023/01/28 02:06:49;;;;;;;;;;;;;;;3.99;58.93;100534.22;5400309;32;45467;-80
2023/01/28 02:09:51;;;;;;;;;;;;;;;4.01;58.09;100524.66;5378109;32;36417;-80
2023/01/28 02:12:55;;;;;;;;;;;;;;;3.64;59.50;100529.31;5402488;32;35014;-78
2023/01/28 02:15:57;;;;;;;;;;;;;;;4.18;57.88;100531.41;5390273;32;35047;-81
2023/01/28 02:18:58;;;;;;;;;;;;;;;3.66;59.20;100530.16;5388304;32;35065;-80
2023/01/28 02:22:07;;;;;;;;;;;;;;;3.40;61.28;100532.09;5411267;32;33902;-79
2023/01/28 02:25:28;;;;;;;;;;;;;;;4.49;57.35;100526.72;5392058;32;35208;-77
2023/01/28 02:28:48;;;;;;;;;;;;;;;3.51;59.52;100522.50;5413730;32;35803;-79
2023/01/28 02:31:53;;;;;;;;;;;;;;;3.10;62.00;100521.06;5392120;32;44967;-77
2023/01/28 02:35:31;;;;;;;;;;;;;;;3.59;60.45;100514.63;5396283;32;34833;-78
2023/01/28 02:38:38;;;;;;;;;;;;;;;3.56;60.76;100515.53;5349091;32;33450;-80
2023/01/28 02:41:48;;;;;;;;;;;;;;;3.91;59.15;100514.34;5390486;32;35363;-81
2023/01/28 02:44:50;;;;;;;;;;;;;;;4.24;58.70;100511.37;5375566;32;45243;-78
2023/01/28 02:47:58;;;;;;;;;;;;;;;3.74;60.09;100517.12;5400708;32;34601;-78
2023/01/28 02:51:13;;;;;;;;;;;;;;;3.53;60.73;100515.53;5397160;32;32816;-78
2023/01/28 02:54:31;;;;;;;;;;;;;;;3.35;62.22;100524.38;5402712;32;45101;-80
2023/01/28 02:57:37;;;;;;;;;;;;;;;3.66;60.98;100516.31;5398900;32;34298;-79
2023/01/28 03:01:11;;;;;;;;;;;;;;;4.34;58.83;100518.22;5381426;32;34247;-78
2023/01/28 03:04:15;;;;;;;;;;;;;;;3.67;60.43;100518.03;5379935;32;34607;-77
2023/01/28 03:07:17;;;;;;;;;;;;;;;4.65;58.13;100512.63;5388663;32;34960;-78
2023/01/28 03:10:20;;;;;;;;;;;;;;;3.60;60.78;100517.22;5418284;32;35805;-78
2023/01/28 03:36:58;;;;;;;;;;;;;;;4.66;58.38;100519.56;5416142;32;35211;-79
2023/01/28 03:40:01;;;;;;;;;;;;;;;4.25;59.01;100518.34;5389211;32;35682;-79
2023/01/28 03:43:03;;;;;;;;;;;;;;;3.78;60.72;100521.41;5380435;32;35101;-77
2023/01/28 03:46:05;;;;;;;;;;;;;;;3.81;60.74;100521.38;5405359;32;34705;-78
2023/01/28 03:49:07;;;;;;;;;;;;;;;4.10;59.08;100528.87;5389945;32;34688;-77
2023/01/28 03:52:09;;;;;;;;;;;;;;;3.28;61.06;100530.47;5416086;32;34089;-79
2023/01/28 03:55:14;;;;;;;;;;;;;;;3.66;60.99;100531.91;5392660;32;35242;-79
2023/01/28 03:58:17;;;;;;;;;;;;;;;4.00;59.28;100529.88;5411344;32;44047;-77
2023/01/28 04:01:19;;;;;;;;;;;;;;;4.14;58.86;100529.72;5400757;32;35652;-79
2023/01/28 04:04:24;;;;;;;;;;;;;;;3.80;59.81;100530.06;5391509;32;34877;-78
2023/01/28 04:07:26;;;;;;;;;;;;;;;4.51;58.43;100531.03;5399734;32;34654;-81
2023/01/28 04:10:28;;;;;;;;;;;;;;;3.83;59.99;100527.41;5396261;32;35896;-78
2023/01/28 04:13:30;;;;;;;;;;;;;;;4.00;59.25;100522.06;5396902;32;35912;-78
2023/01/28 04:16:32;;;;;;;;;;;;;;;4.76;57.36;100523.75;5389411;32;35198;-78
2023/01/28 04:19:35;;;;;;;;;;;;;;;3.99;59.33;100530.72;5409518;32;34541;-79
2023/01/28 04:22:37;;;;;;;;;;;;;;;3.55;60.45;100537.22;5401572;32;34879;-78
2023/01/28 04:25:39;;;;;;;;;;;;;;;2.85;62.40;100546.31;5401974;32;34939;-80
2023/01/28 04:28:42;;;;;;;;;;;;;;;3.89;60.25;100527.38;5407688;32;35065;-78
2023/01/28 04:31:44;;;;;;;;;;;;;;;3.42;60.61;100533.84;5399999;32;43977;-78
2023/01/28 04:34:46;;;;;;;;;;;;;;;4.00;59.61;100541.13;5412036;32;36063;-78
2023/01/28 04:37:48;;;;;;;;;;;;;;;3.02;61.88;100547.94;5398566;32;34985;-80
2023/01/28 04:40:50;;;;;;;;;;;;;;;3.21;61.12;100544.38;5418827;32;35509;-78
2023/01/28 04:43:52;;;;;;;;;;;;;;;2.88;62.60;100550.62;5369872;32;35723;-80
2023/01/28 04:46:54;;;;;;;;;;;;;;;3.68;61.33;100535.37;5405678;32;35272;-78
2023/01/28 04:49:57;;;;;;;;;;;;;;;3.46;61.00;100545.06;5411586;32;34380;-81
2023/01/28 04:52:59;;;;;;;;;;;;;;;3.62;60.36;100545.81;5407455;32;34357;-80
2023/01/28 04:56:01;;;;;;;;;;;;;;;3.51;61.03;100546.75;5418546;32;35334;-79
2023/01/28 04:59:02;;;;;;;;;;;;;;;3.17;61.89;100543.53;5387544;32;34311;-79
2023/01/28 05:02:04;;;;;;;;;;;;;;;3.22;61.79;100562.56;5416274;32;36614;-79
2023/01/28 05:05:07;;;;;;;;;;;;;;;3.15;62.58;100560.84;5386824;32;34525;-79
2023/01/28 05:08:09;;;;;;;;;;;;;;;4.50;58.96;100560.53;5397450;32;35148;-78
2023/01/28 05:11:12;;;;;;;;;;;;;;;3.69;59.96;100553.53;5396924;32;35110;-78
2023/01/28 05:14:14;;;;;;;;;;;;;;;3.65;61.50;100562.22;5390043;32;44564;-78
2023/01/28 05:17:16;;;;;;;;;;;;;;;4.45;58.99;100566.69;5401962;32;36871;-80
2023/01/28 05:20:18;;;;;;;;;;;;;;;3.40;61.55;100568.47;5387691;32;35049;-77
2023/01/28 05:23:20;;;;;;;;;;;;;;;4.06;59.68;100564.47;5409222;32;35180;-78
2023/01/28 05:26:22;;;;;;;;;;;;;;;3.13;61.71;100575.59;5397241;32;34305;-77
2023/01/28 05:29:24;;;;;;;;;;;;;;;3.58;61.22;100578.75;5387205;32;35250;-80
2023/01/28 05:32:26;;;;;;;;;;;;;;;3.62;61.22;100582.19;5413277;32;35865;-79
2023/01/28 05:35:28;;;;;;;;;;;;;;;2.86;63.45;100583.53;5395527;32;34961;-78
2023/01/28 05:38:30;;;;;;;;;;;;;;;3.72;60.66;100576.91;5416358;32;34212;-79
2023/01/28 05:41:32;;;;;;;;;;;;;;;3.26;61.29;100584.16;5386280;32;34830;-80
2023/01/28 05:44:36;;;;;;;;;;;;;;;3.22;62.23;100587.62;5390035;32;34355;-80
2023/01/28 05:47:38;;;;;;;;;;;;;;;3.26;61.61;100587.62;5394864;32;35759;-80
2023/01/28 05:50:40;;;;;;;;;;;;;;;4.06;59.47;100571.44;5398035;32;36757;-79
2023/01/28 05:53:42;;;;;;;;;;;;;;;2.97;62.08;100586.94;5406268;32;37448;-80
2023/01/28 05:56:46;;;;;;;;;;;;;;;3.92;60.12;100570.66;5399775;32;34803;-80
2023/01/28 05:59:48;;;;;;;;;;;;;;;3.92;59.83;100589.72;5414648;32;34878;-80
2023/01/28 06:02:50;;;;;;;;;;;;;;;3.50;60.95;100590.94;5397142;32;34881;-80
2023/01/28 06:05:52;;;;;;;;;;;;;;;3.96;59.57;100595.78;5414600;32;34732;-78
2023/01/28 06:08:54;;;;;;;;;;;;;;;3.33;61.63;100595.38;5379278;32;35059;-79
2023/01/28 06:11:56;;;;;;;;;;;;;;;4.10;59.95;100596.50;5383997;32;34750;-78
2023/01/28 06:14:58;;;;;;;;;;;;;;;3.84;60.33;100593.28;5409002;32;34741;-78
2023/01/28 06:18:00;;;;;;;;;;;;;;;4.20;59.78;100603.37;5385869;32;34294;-78
2023/01/28 06:21:02;;;;;;;;;;;;;;;2.84;63.80;100621.62;5405459;32;34058;-80
2023/01/28 06:24:04;;;;;;;;;;;;;;;2.86;63.90;100622.47;5385005;32;33639;-78
2023/01/28 06:27:06;;;;;;;;;;;;;;;3.12;63.92;100622.34;5419155;32;35069;-80
2023/01/28 06:30:08;;;;;;;;;;;;;;;2.95;64.63;100627.59;5398541;32;35261;-80
2023/01/28 06:33:10;;;;;;;;;;;;;;;2.48;65.86;100623.44;5396381;32;34983;-80
2023/01/28 06:36:12;;;;;;;;;;;;;;;3.71;62.70;100621.97;5405464;32;34308;-80
2023/01/28 06:39:14;;;;;;;;;;;;;;;3.26;63.39;100636.97;5394020;32;44910;-80
2023/01/28 06:42:16;;;;;;;;;;;;;;;3.55;62.85;100633.37;5403067;32;34828;-80
2023/01/28 06:45:18;;;;;;;;;;;;;;;3.08;64.07;100641.41;5387256;32;34351;-80
2023/01/28 06:48:20;;;;;;;;;;;;;;;4.30;59.88;100638.81;5410666;32;34802;-81
2023/01/28 06:51:22;;;;;;;;;;;;;;;4.05;61.38;100642.50;5388136;32;34464;-80
2023/01/28 06:54:24;;;;;;;;;;;;;;;3.96;61.67;100650.41;5397125;32;35614;-81
2023/01/28 06:57:26;;;;;;;;;;;;;;;2.56;66.22;100662.34;5417540;32;35442;-78
2023/01/28 07:00:28;;;;;;;;;;;;;;;3.76;62.94;100659.22;5396630;32;36463;-81
2023/01/28 07:03:30;;;;;;;;;;;;;;;2.41;66.80;100668.44;5412864;32;35257;-78
2023/01/28 07:06:32;;;;;;;;;;;;;;;2.63;67.29;100670.09;5398147;32;34366;-80
2023/01/28 07:09:34;;;;;;;;;;;;;;;3.26;64.34;100675.94;5407534;32;34747;-78
2023/01/28 07:12:36;;;;;;;;;;;;;;;2.76;65.95;100678.72;5378387;32;35107;-78
2023/01/28 07:15:38;;;;;;;;;;;;;;;2.16;68.09;100681.41;5382465;32;34578;-80
2023/01/28 07:18:40;;;;;;;;;;;;;;;3.00;67.02;100683.00;5404260;32;33926;-78
2023/01/28 07:21:42;;;;;;;;;;;;;;;3.56;65.07;100689.66;5385255;32;35294;-78
2023/01/28 07:24:44;;;;;;;;;;;;;;;3.97;63.52;100676.38;5406708;32;44781;-77
2023/01/28 07:27:49;;;;;;;;;;;;;;;3.11;66.11;100694.22;5385109;32;35337;-77
2023/01/28 07:30:51;;;;;;;;;;;;;;;2.69;68.93;100693.44;5397865;32;35515;-78
2023/01/28 07:33:54;;;;;;;;;;;;;;;2.57;68.78;100701.25;5395402;32;35108;-81
2023/01/28 07:36:56;;;;;;;;;;;;;;;2.56;70.71;100698.66;5382066;32;36087;-79
2023/01/28 07:39:58;;;;;;;;;;;;;;;3.03;68.46;100706.38;5409868;32;37723;-80
2023/01/28 07:43:00;;;;;;;;;;;;;;;2.63;70.34;100695.19;5356596;32;34179;-80
2023/01/28 07:46:02;;;;;;;;;;;;;;;3.20;67.83;100707.16;5401712;32;35009;-78
2023/01/28 07:49:04;;;;;;;;;;;;;;;3.16;68.34;100708.03;5388406;32;35091;-79
2023/01/28 07:52:06;;;;;;;;;;;;;;;3.33;66.72;100694.97;5397423;32;34493;-79
2023/01/28 07:55:15;;;;;;;;;;;;;;;3.62;66.37;100696.56;5395587;32;34791;-78
2023/01/28 07:58:17;;;;;;;;;;;;;;;2.86;70.38;100702.94;5396928;32;46770;-78
2023/01/28 08:01:19;;;;;;;;;;;;;;;2.20;71.52;100708.22;5401876;32;34952;-80
2023/01/28 08:04:21;;;;;;;;;;;;;;;3.31;68.24;100716.62;5397171;32;34940;-81
2023/01/28 08:07:24;;;;;;;;;;;;;;;3.02;69.48;100712.41;5418988;32;33815;-81
2023/01/28 08:10:26;;;;;;;;;;;;;;;3.30;68.98;100717.50;5392380;32;35126;-78
2023/01/28 08:13:28;;;;;;;;;;;;;;;2.58;71.14;100726.38;5376611;32;35527;-80
2023/01/28 08:16:30;;;;;;;;;;;;;;;2.56;71.02;100728.06;5385009;32;34157;-81
2023/01/28 08:19:32;;;;;;;;;;;;;;;3.44;69.07;100720.91;5390439;32;35332;-80
2023/01/28 08:22:33;;;;;;;;;;;;;;;3.18;68.40;100721.03;5405428;32;35644;-80
2023/01/28 08:25:36;;;;;;;;;;;;;;;3.21;68.55;100715.78;5399079;32;34962;-79
2023/01/28 08:28:38;;;;;;;;;;;;;;;3.94;66.38;100725.84;5415235;32;35198;-77
2023/01/28 08:31:40;;;;;;;;;;;;;;;4.03;66.90;100719.69;5398082;32;35230;-80
2023/01/28 08:34:42;;;;;;;;;;;;;;;3.47;68.44;100739.06;5397579;32;34409;-79
2023/01/28 08:37:43;;;;;;;;;;;;;;;3.04;69.39;100736.66;5401950;32;44344;-78
2023/01/28 08:40:46;;;;;;;;;;;;;;;3.05;70.55;100738.37;5377686;32;35742;-80
2023/01/28 08:43:48;;;;;;;;;;;;;;;3.39;68.85;100740.84;5384087;32;35891;-77
2023/01/28 08:46:50;;;;;;;;;;;;;;;2.86;70.91;100747.06;5382091;32;35238;-78
2023/01/28 08:49:52;;;;;;;;;;;;;;;3.62;69.64;100740.75;5405657;32;34222;-81
2023/01/28 08:53:12;;;;;;;;;;;;;;;3.58;67.58;100744.22;5388204;32;34980;-79
2023/01/28 08:56:15;;;;;;;;;;;;;;;2.56;72.75;100747.97;5392244;32;45435;-77
2023/01/28 08:59:17;;;;;;;;;;;;;;;4.00;68.10;100745.75;5416187;32;34829;-79
2023/01/28 09:02:19;;;;;;;;;;;;;;;2.84;70.37;100761.81;5387684;32;34821;-81
2023/01/28 09:05:36;;;;;;;;;;;;;;;2.61;73.31;100754.03;5415609;32;34829;-79
2023/01/28 09:08:38;;;;;;;;;;;;;;;2.84;72.04;100761.81;5389349;32;35382;-80
2023/01/28 09:11:40;;;;;;;;;;;;;;;3.32;69.95;100760.78;5400730;32;34283;-78
2023/01/28 09:14:42;;;;;;;;;;;;;;;2.76;73.41;100763.50;5398436;32;35425;-80
2023/01/28 09:17:44;;;;;;;;;;;;;;;3.23;71.96;100748.72;5386622;32;35025;-81
2023/01/28 09:20:46;;;;;;;;;;;;;;;4.60;66.81;100757.41;5401742;32;34243;-81
2023/01/28 09:23:48;;;;;;;;;;;;;;;4.34;66.68;100759.34;5388787;32;35086;-77
2023/01/28 09:26:50;;;;;;;;;;;;;;;5.29;63.68;100763.66;5409979;32;35568;-80
2023/01/28 09:29:53;;;;;;;;;;;;;;;3.58;68.87;100776.28;5393637;32;36281;-82
2023/01/28 09:32:56;;;;;;;;;;;;;;;4.13;68.49;100770.78;5400494;32;35581;-80
2023/01/28 09:35:59;;;;;;;;;;;;;;;4.14;69.00;100772.50;5404694;32;35003;-79
2023/01/28 09:39:01;;;;;;;;;;;;;;;3.86;70.21;100776.13;5392484;32;34843;-77
2023/01/28 09:42:22;;;;;;;;;;;;;;;3.97;69.31;100780.41;5397647;32;34171;-78
2023/01/28 09:45:24;;;;;;;;;;;;;;;4.53;66.76;100767.88;5392650;32;34831;-78
2023/01/28 09:48:37;;;;;;;;;;;;;;;3.96;70.62;100767.41;5409421;32;34995;-77
2023/01/28 09:51:39;;;;;;;;;;;;;;;3.73;69.80;100771.00;5393943;32;35532;-81
2023/01/28 09:54:44;;;;;;;;;;;;;;;4.58;68.12;100763.50;5397592;32;34599;-78
2023/01/28 09:57:47;;;;;;;;;;;;;;;4.65;67.48;100764.31;5406436;32;46274;-79
2023/01/28 10:00:59;;;;;;;;;;;;;;;3.98;70.48;100752.66;5396598;32;35127;-78
2023/01/28 10:04:08;;;;;;;;;;;;;;;5.32;64.84;100756.66;5408776;32;35146;-78
2023/01/28 10:07:10;;;;;;;;;;;;;;;4.70;67.21;100758.19;5391222;32;33160;-78
2023/01/28 10:10:13;;;;;;;;;;;;;;;5.21;64.27;100753.31;5384477;32;35732;-82
2023/01/28 10:13:21;;;;;;;;;;;;;;;4.62;67.63;100750.44;5391074;32;42843;-80
2023/01/28 10:16:28;;;;;;;;;;;;;;;4.39;68.04;100764.53;5390275;32;36894;-78
2023/01/28 10:19:50;;;;;;;;;;;;;;;4.65;65.99;100759.13;5408000;32;34617;-79
2023/01/28 10:22:55;;;;;;;;;;;;;;;5.52;63.50;100752.94;5386410;32;37456;-81
2023/01/28 10:25:58;;;;;;;;;;;;;;;5.16;64.36;100750.78;5400728;32;35755;-79
2023/01/28 10:29:02;;;;;;;;;;;;;;;5.80;61.64;100749.13;5403518;32;34473;-81
2023/01/28 10:32:05;;;;;;;;;;;;;;;4.82;66.28;100752.84;5392296;32;34586;-81
2023/01/28 10:35:07;;;;;;;;;;;;;;;5.22;63.27;100754.19;5406267;32;33912;-79
2023/01/28 10:38:11;;;;;;;;;;;;;;;5.51;62.90;100756.44;5394829;32;34884;-78
2023/01/28 10:41:15;;;;;;;;;;;;;;;5.32;64.67;100755.81;5415392;32;44212;-79
2023/01/28 10:44:26;;;;;;;;;;;;;;;6.11;62.61;100749.53;5360386;32;35021;-80
2023/01/28 10:47:29;;;;;;;;;;;;;;;5.00;62.07;100745.72;5391280;32;34752;-80
2023/01/28 10:50:31;;;;;;;;;;;;;;;6.38;60.07;100747.41;5416944;32;34938;-80
2023/01/28 10:53:33;;;;;;;;;;;;;;;7.92;55.60;100743.53;5392877;32;33285;-80
2023/01/28 10:56:36;;;;;;;;;;;;;;;6.82;55.47;100746.63;5419233;32;34999;-80
2023/01/28 10:59:41;;;;;;;;;;;;;;;6.93;56.58;100744.69;5382906;32;35275;-79
2023/01/28 11:02:43;;;;;;;;;;;;;;;7.08;56.17;100748.75;5410175;32;44328;-81
2023/01/28 11:05:51;;;;;;;;;;;;;;;6.29;59.36;100739.72;5404024;32;35226;-78
2023/01/28 11:08:53;;;;;;;;;;;;;;;6.95;56.43;100740.28;5398289;32;35074;-79
2023/01/28 11:11:55;;;;;;;;;;;;;;;5.90;59.46;100745.47;5408572;32;33534;-80
2023/01/28 11:14:58;;;;;;;;;;;;;;;6.87;57.74;100743.94;5381660;32;34834;-82
2023/01/28 11:18:01;;;;;;;;;;;;;;;6.62;58.36;100739.16;5410785;32;34914;-80
2023/01/28 11:21:04;;;;;;;;;;;;;;;6.53;58.29;100735.84;5399932;32;34440;-79
2023/01/28 11:24:18;;;;;;;;;;;;;;;5.85;58.63;100735.97;5399323;32;34862;-79
2023/01/28 11:27:22;;;;;;;;;;;;;;;5.32;59.63;100738.41;5381353;32;44992;-80
2023/01/28 11:30:34;;;;;;;;;;;;;;;5.71;59.28;100734.44;5368557;32;35383;-78
2023/01/28 11:33:37;;;;;;;;;;;;;;;4.96;60.02;100731.00;5411459;32;34147;-79
2023/01/28 11:36:39;;;;;;;;;;;;;;;6.08;57.83;100733.09;5395975;32;35861;-81
2023/01/28 11:39:41;;;;;;;;;;;;;;;5.82;59.08;100730.81;5416441;32;34258;-78
2023/01/28 11:42:43;;;;;;;;;;;;;;;5.66;55.92;100738.84;5361192;32;43166;-78
2023/01/28 11:46:03;;;;;;;;;;;;;;;5.67;56.28;100726.69;5381526;32;35386;-80
2023/01/28 11:49:09;;;;;;;;;;;;;;;6.45;53.89;100726.41;5410894;32;34526;-79
2023/01/28 11:52:17;;;;;;;;;;;;;;;6.29;54.21;100719.69;5395321;32;33894;-81
2023/01/28 11:55:19;;;;;;;;;;;;;;;6.53;53.94;100720.19;5420528;32;43654;-77
2023/01/28 11:58:22;;;;;;;;;;;;;;;6.67;52.46;100712.97;5393018;32;36006;-78
2023/01/28 12:01:27;;;;;;;;;;;;;;;7.07;52.77;100713.94;5405416;32;35676;-80
2023/01/28 12:04:39;;;;;;;;;;;;;;;5.89;53.74;100722.03;5412523;32;34925;-80
2023/01/28 12:07:55;;;;;;;;;;;;;;;5.24;56.99;100721.16;5392305;32;34576;-78
2023/01/28 12:10:57;;;;;;;;;;;;;;;6.25;54.13;100712.81;5412364;32;35492;-81
2023/01/28 12:14:05;;;;;;;;;;;;;;;5.17;55.94;100720.38;5376949;32;35217;-80
2023/01/28 12:17:11;;;;;;;;;;;;;;;5.60;54.86;100711.97;5400019;32;34076;-80
2023/01/28 12:20:25;;;;;;;;;;;;;;;5.82;53.72;100705.59;5404511;32;43650;-78
2023/01/28 12:23:35;;;;;;;;;;;;;;;6.28;52.00;100699.69;5386182;32;35077;-80
2023/01/28 12:26:48;;;;;;;;;;;;;;;5.51;53.42;100709.50;5401821;32;34256;-78
2023/01/28 12:29:53;;;;;;;;;;;;;;;6.43;51.35;100709.00;5398640;32;45053;-80
2023/01/28 12:33:05;;;;;;;;;;;;;;;6.17;51.58;100706.84;5399695;32;35803;-80
2023/01/28 12:36:19;;;;;;;;;;;;;;;6.38;52.02;100708.25;5409431;32;34698;-81
2023/01/28 12:39:39;;;;;;;;;;;;;;;6.10;52.42;100713.91;5397621;32;45192;-80
2023/01/28 12:42:44;;;;;;;;;;;;;;;5.30;54.14;100715.88;5394610;32;34776;-77
2023/01/28 12:45:49;;;;;;;;;;;;;;;6.00;52.47;100708.88;5382124;32;44550;-82
2023/01/28 12:48:53;;;;;;;;;;;;;;;7.53;48.53;100709.50;5386058;32;37138;-81
2023/01/28 12:52:07;;;;;;;;;;;;;;;6.29;51.10;100711.00;5402271;32;34556;-81
2023/01/28 12:55:14;;;;;;;;;;;;;;;5.79;51.83;100713.44;5396940;32;35394;-78
2023/01/28 12:58:18;;;;;;;;;;;;;;;6.81;50.19;100710.09;5411465;32;44290;-80
2023/01/28 13:01:23;;;;;;;;;;;;;;;6.21;51.54;100719.81;5382014;32;35050;-81
2023/01/28 13:04:40;;;;;;;;;;;;;;;7.01;49.89;100721.87;5395592;32;35052;-80
2023/01/28 13:07:48;;;;;;;;;;;;;;;6.65;50.09;100723.44;5395824;32;36624;-80
2023/01/28 13:10:50;;;;;;;;;;;;;;;7.35;47.97;100723.00;5397600;32;44414;-80
2023/01/28 13:13:52;;;;;;;;;;;;;;;5.87;51.81;100729.88;5396743;32;35560;-80
2023/01/28 13:16:54;;;;;;;;;;;;;;;5.93;51.58;100723.75;5386572;32;35923;-78
2023/01/28 13:19:59;;;;;;;;;;;;;;;5.98;51.09;100728.00;5411510;32;34809;-77
2023/01/28 13:23:03;;;;;;;;;;;;;;;6.28;51.19;100732.78;5388775;32;35421;-80
2023/01/28 13:26:09;;;;;;;;;;;;;;;6.25;50.67;100741.53;5408364;32;35019;-79
2023/01/28 13:29:23;;;;;;;;;;;;;;;6.15;50.79;100735.56;5406888;32;33985;-80
2023/01/28 13:32:28;;;;;;;;;;;;;;;5.94;50.22;100735.91;5393710;32;34467;-79
2023/01/28 13:35:39;;;;;;;;;;;;;;;5.93;50.67;100748.09;5406830;32;34627;-80
2023/01/28 13:38:41;;;;;;;;;;;;;;;6.37;50.28;100736.09;5393667;32;35656;-80
2023/01/28 13:41:47;;;;;;;;;;;;;;;5.22;52.92;100743.78;5400740;32;44534;-78
2023/01/28 13:44:50;;;;;;;;;;;;;;;5.57;52.64;100751.16;5395128;32;38805;-81
2023/01/28 13:47:57;;;;;;;;;;;;;;;5.72;52.13;100753.56;5391113;32;34906;-81
2023/01/28 13:51:00;;;;;;;;;;;;;;;6.44;50.74;100758.63;5417913;32;34316;-80
2023/01/28 13:54:06;;;;;;;;;;;;;;;6.40;49.77;100749.09;5392292;32;34667;-79
2023/01/28 13:57:11;;;;;;;;;;;;;;;6.85;49.32;100753.56;5415453;32;34568;-80
2023/01/28 14:00:17;;;;;;;;;;;;;;;6.53;49.16;100756.75;5393789;32;44958;-80
2023/01/28 14:03:22;;;;;;;;;;;;;;;6.63;49.01;100758.28;5395045;32;35266;-79
2023/01/28 14:06:34;;;;;;;;;;;;;;;6.63;49.09;100759.16;5408763;32;35338;-79
2023/01/28 14:09:38;;;;;;;;;;;;;;;6.66;48.34;100763.47;5367488;32;1001921;-80
2023/01/28 14:12:40;;;;;;;;;;;;;;;5.61;51.60;100763.28;5403322;32;34775;-79
2023/01/28 14:15:52;;;;;;;;;;;;;;;6.32;50.04;100773.63;5393609;32;37556;-79
2023/01/28 14:18:54;;;;;;;;;;;;;;;5.82;50.99;100767.34;5398502;32;36490;-79
2023/01/28 14:21:56;;;;;;;;;;;;;;;5.94;51.06;100769.81;5386130;32;35766;-81
2023/01/28 14:24:59;;;;;;;;;;;;;;;6.57;49.50;100776.69;5392120;32;35082;-81
2023/01/28 14:28:00;;;;;;;;;;;;;;;5.03;55.24;100787.41;5405540;32;36698;-81
2023/01/28 14:31:07;;;;;;;;;;;;;;;6.13;54.13;100778.25;5399852;32;34818;-81
2023/01/28 14:34:13;;;;;;;;;;;;;;;6.40;53.42;100788.28;5420115;32;34299;-80
2023/01/28 14:37:17;;;;;;;;;;;;;;;5.84;55.71;100784.69;5385644;32;44887;-79
2023/01/28 14:40:19;;;;;;;;;;;;;;;6.70;53.60;100778.22;5394269;32;36778;-79
2023/01/28 14:43:21;;;;;;;;;;;;;;;6.51;54.63;100775.91;5372797;32;34359;-78
2023/01/28 14:46:31;;;;;;;;;;;;;;;5.76;56.72;100788.28;5396635;32;35184;-81
2023/01/28 14:49:33;;;;;;;;;;;;;;;6.00;56.65;100794.97;5405074;32;35042;-80
2023/01/28 14:52:46;;;;;;;;;;;;;;;6.06;55.84;100797.50;5398381;32;34045;-82
2023/01/28 14:56:07;;;;;;;;;;;;;;;5.60;57.42;100803.25;5415577;32;44630;-78
2023/01/28 14:59:17;;;;;;;;;;;;;;;5.71;57.70;100801.38;5408382;32;36134;-82
2023/01/28 15:02:26;;;;;;;;;;;;;;;4.96;59.47;100807.44;5385001;32;44562;-81
2023/01/28 15:05:28;;;;;;;;;;;;;;;5.13;59.31;100802.03;5404522;32;34790;-81
2023/01/28 15:08:31;;;;;;;;;;;;;;;5.37;58.64;100801.78;5386614;32;34696;-82
2023/01/28 15:11:34;;;;;;;;;;;;;;;5.58;57.81;100811.09;5408761;32;34988;-81
2023/01/28 15:14:38;;;;;;;;;;;;;;;5.28;58.42;100809.72;5377182;32;34594;-80
2023/01/28 15:17:40;;;;;;;;;;;;;;;5.50;57.87;100822.50;5383566;32;33504;-78
2023/01/28 15:20:45;;;;;;;;;;;;;;;5.27;59.16;100826.22;5415430;32;34831;-78
2023/01/28 15:23:48;;;;;;;;;;;;;;;4.32;61.87;100836.59;5383756;32;46730;-78
2023/01/28 15:26:50;;;;;;;;;;;;;;;4.72;61.33;100839.75;5417269;32;36028;-81
2023/01/28 15:29:53;;;;;;;;;;;;;;;5.15;59.55;100831.53;5397548;32;35693;-78
2023/01/28 15:32:55;;;;;;;;;;;;;;;5.08;59.97;100840.31;5401993;32;35417;-80
2023/01/28 15:35:57;;;;;;;;;;;;;;;4.59;60.81;100840.72;5398728;32;35448;-77
2023/01/28 15:38:59;;;;;;;;;;;;;;;4.75;60.98;100847.53;5383201;32;34951;-79
2023/01/28 15:42:02;;;;;;;;;;;;;;;4.51;60.84;100850.34;5403963;32;34618;-78
2023/01/28 15:45:04;;;;;;;;;;;;;;;4.28;62.21;100851.34;5385595;32;34649;-78
2023/01/28 15:48:07;;;;;;;;;;;;;;;4.84;61.07;100857.91;5416417;32;34993;-81
2023/01/28 15:51:20;;;;;;;;;;;;;;;4.88;60.83;100854.37;5397892;32;34370;-81
2023/01/28 15:54:22;;;;;;;;;;;;;;;4.68;61.69;100864.09;5412751;32;44379;-78
2023/01/28 15:57:26;;;;;;;;;;;;;;;4.32;63.11;100868.69;5393870;32;34836;-78
2023/01/28 16:00:28;;;;;;;;;;;;;;;4.86;61.46;100868.28;5397846;32;34992;-79
2023/01/28 16:03:33;;;;;;;;;;;;;;;5.55;59.27;100867.66;5420970;32;35391;-79
2023/01/28 16:06:35;;;;;;;;;;;;;;;5.12;59.81;100873.28;5393623;32;35128;-79
2023/01/28 16:09:38;;;;;;;;;;;;;;;4.65;61.46;100881.47;5417545;32;34796;-80
2023/01/28 16:12:40;;;;;;;;;;;;;;;5.21;60.03;100869.72;5384559;32;35737;-78
2023/01/28 16:15:45;;;;;;;;;;;;;;;5.30;59.21;100878.31;5382315;32;35968;-79
2023/01/28 16:18:50;;;;;;;;;;;;;;;4.83;60.87;100887.44;5395454;32;44185;-81
2023/01/28 16:21:52;;;;;;;;;;;;;;;3.78;64.00;100891.44;5396240;32;35717;-78
2023/01/28 16:24:54;;;;;;;;;;;;;;;4.30;63.43;100900.75;5406920;32;36173;-78